createdAt,value
2022-12-06T00:00:32.792Z,991.90
2022-12-06T00:01:32.818Z,991.83
2022-12-06T00:02:32.880Z,991.92
2022-12-06T00:03:32.825Z,991.88
2022-12-06T00:04:32.887Z,991.88
2022-12-06T00:05:32.771Z,991.92
2022-12-06T00:06:32.751Z,991.88
2022-12-06T00:07:32.842Z,991.90
2022-12-06T00:08:32.739Z,991.89
2022-12-06T00:09:32.750Z,991.89
2022-12-06T00:10:32.758Z,991.83
2022-12-06T00:11:32.714Z,991.85
2022-12-06T00:12:32.749Z,991.86
2022-12-06T00:13:32.740Z,991.83
2022-12-06T00:14:32.723Z,991.92
2022-12-06T00:15:32.853Z,991.84
2022-12-06T00:16:32.812Z,991.85
2022-12-06T00:17:32.680Z,991.78
2022-12-06T00:18:32.702Z,991.83
2022-12-06T00:19:32.715Z,991.88
2022-12-06T00:20:32.722Z,991.83
2022-12-06T00:21:32.700Z,991.86
2022-12-06T00:22:32.698Z,991.79
2022-12-06T00:23:32.682Z,991.80
2022-12-06T00:24:32.706Z,991.79
2022-12-06T00:25:32.623Z,991.75
2022-12-06T00:26:32.707Z,991.79
2022-12-06T00:27:32.627Z,991.78
2022-12-06T00:28:32.642Z,991.78
2022-12-06T00:29:32.636Z,991.79
2022-12-06T00:30:32.646Z,991.73
2022-12-06T00:31:32.687Z,991.71
2022-12-06T00:32:32.633Z,991.73
2022-12-06T00:33:32.630Z,991.78
2022-12-06T00:34:32.627Z,991.79
2022-12-06T00:35:32.602Z,991.67
2022-12-06T00:36:32.591Z,991.72
2022-12-06T00:37:32.641Z,991.67
2022-12-06T00:38:32.597Z,991.68
2022-12-06T00:39:32.611Z,991.65
2022-12-06T00:40:32.553Z,991.72
2022-12-06T00:41:32.580Z,991.61
2022-12-06T00:42:32.574Z,991.64
2022-12-06T00:43:33.573Z,991.68
2022-12-06T00:44:32.555Z,991.61
2022-12-06T00:45:32.626Z,991.71
2022-12-06T00:46:32.633Z,991.64
2022-12-06T00:47:32.517Z,991.63
2022-12-06T00:48:32.569Z,991.66
2022-12-06T00:49:32.505Z,991.60
2022-12-06T00:50:32.536Z,991.60
2022-12-06T00:51:32.525Z,991.59
2022-12-06T00:52:32.529Z,991.57
2022-12-06T00:53:32.586Z,991.58
2022-12-06T00:54:32.518Z,991.53
2022-12-06T00:55:32.491Z,991.60
2022-12-06T00:56:32.485Z,991.58
2022-12-06T00:57:32.465Z,991.61
2022-12-06T00:58:32.482Z,991.60
2022-12-06T01:00:04.445Z,991.60
2022-12-06T01:00:32.455Z,991.62
2022-12-06T01:01:32.635Z,991.59
2022-12-06T01:02:32.472Z,991.58
2022-12-06T01:03:35.183Z,991.61
2022-12-06T01:04:33.415Z,991.56
2022-12-06T01:05:32.525Z,991.60
2022-12-06T01:06:32.499Z,991.55
2022-12-06T01:07:32.496Z,991.59
2022-12-06T01:08:32.428Z,991.57
2022-12-06T01:09:32.452Z,991.66
2022-12-06T01:10:32.478Z,991.57
2022-12-06T01:11:33.432Z,991.62
2022-12-06T01:12:32.443Z,991.61
2022-12-06T01:13:32.415Z,991.64
2022-12-06T01:14:32.353Z,991.67
2022-12-06T01:15:32.372Z,991.72
2022-12-06T01:16:32.537Z,991.63
2022-12-06T01:17:32.362Z,991.62
2022-12-06T01:18:32.375Z,991.62
2022-12-06T01:19:32.379Z,991.62
2022-12-06T01:20:32.364Z,991.66
2022-12-06T01:21:32.475Z,991.67
2022-12-06T01:22:32.343Z,991.65
2022-12-06T01:23:32.341Z,991.68
2022-12-06T01:24:32.330Z,991.70
2022-12-06T01:25:35.777Z,991.72
2022-12-06T01:26:33.984Z,991.75
2022-12-06T01:27:32.367Z,991.72
2022-12-06T01:28:32.311Z,991.72
2022-12-06T01:29:32.342Z,991.68
2022-12-06T01:30:32.320Z,991.65
2022-12-06T01:31:37.277Z,991.70
2022-12-06T01:32:33.323Z,991.61
2022-12-06T01:33:32.275Z,991.65
2022-12-06T01:34:32.294Z,991.65
2022-12-06T01:35:32.271Z,991.69
2022-12-06T01:36:32.298Z,991.62
2022-12-06T01:37:32.251Z,991.62
2022-12-06T01:38:32.272Z,991.66
2022-12-06T01:39:32.228Z,991.61
2022-12-06T01:40:32.265Z,991.63
2022-12-06T01:41:32.282Z,991.70
2022-12-06T01:42:32.281Z,991.71
2022-12-06T01:43:32.262Z,991.63
2022-12-06T01:44:32.241Z,991.66
2022-12-06T01:45:32.257Z,991.62
2022-12-06T01:46:32.322Z,991.62
2022-12-06T01:47:32.255Z,991.58
2022-12-06T01:48:32.238Z,991.61
2022-12-06T01:49:32.286Z,991.63
2022-12-06T01:50:32.175Z,991.62
2022-12-06T01:51:32.192Z,991.67
2022-12-06T01:52:32.203Z,991.61
2022-12-06T01:53:32.214Z,991.64
2022-12-06T01:54:32.190Z,991.63
2022-12-06T01:55:32.170Z,991.58
2022-12-06T01:56:32.144Z,991.60
2022-12-06T01:57:32.158Z,991.57
2022-12-06T01:58:32.202Z,991.57
2022-12-06T01:59:32.154Z,991.56
2022-12-06T02:00:32.139Z,991.58
2022-12-06T02:01:32.167Z,991.63
2022-12-06T02:02:32.191Z,991.59
2022-12-06T02:03:32.143Z,991.60
2022-12-06T02:04:32.164Z,991.63
2022-12-06T02:05:36.119Z,991.54
2022-12-06T02:06:34.087Z,991.57
2022-12-06T02:07:32.256Z,991.60
2022-12-06T02:08:32.105Z,991.55
2022-12-06T02:09:32.099Z,991.54
2022-12-06T02:10:32.082Z,991.55
2022-12-06T02:11:35.217Z,991.53
2022-12-06T02:12:33.124Z,991.51
2022-12-06T02:13:32.069Z,991.54
2022-12-06T02:14:32.204Z,991.57
2022-12-06T02:15:32.053Z,991.52
2022-12-06T02:16:32.276Z,991.53
2022-12-06T02:17:32.049Z,991.61
2022-12-06T02:18:32.041Z,991.60
2022-12-06T02:19:32.010Z,991.55
2022-12-06T02:20:32.145Z,991.56
2022-12-06T02:21:32.028Z,991.55
2022-12-06T02:22:31.992Z,991.59
2022-12-06T02:23:32.004Z,991.50
2022-12-06T02:24:32.022Z,991.50
2022-12-06T02:25:34.171Z,991.54
2022-12-06T02:26:32.968Z,991.51
2022-12-06T02:27:31.959Z,991.41
2022-12-06T02:28:32.009Z,991.51
2022-12-06T02:29:31.992Z,991.52
2022-12-06T02:30:32.999Z,991.55
2022-12-06T02:31:32.037Z,991.48
2022-12-06T02:32:31.943Z,991.49
2022-12-06T02:33:31.992Z,991.50
2022-12-06T02:34:31.956Z,991.46
2022-12-06T02:35:31.904Z,991.52
2022-12-06T02:36:31.954Z,991.55
2022-12-06T02:37:31.929Z,991.51
2022-12-06T02:38:31.935Z,991.49
2022-12-06T02:39:31.957Z,991.47
2022-12-06T02:40:31.925Z,991.45
2022-12-06T02:41:31.890Z,991.40
2022-12-06T02:42:31.952Z,991.42
2022-12-06T02:43:31.917Z,991.42
2022-12-06T02:44:31.910Z,991.42
2022-12-06T02:45:31.894Z,991.42
2022-12-06T02:46:31.942Z,991.37
2022-12-06T02:47:31.986Z,991.45
2022-12-06T02:48:31.873Z,991.47
2022-12-06T02:49:31.825Z,991.43
2022-12-06T02:50:31.854Z,991.42
2022-12-06T02:51:31.803Z,991.46
2022-12-06T02:52:31.825Z,991.44
2022-12-06T02:53:31.978Z,991.48
2022-12-06T02:54:31.807Z,991.43
2022-12-06T02:55:31.830Z,991.46
2022-12-06T02:56:31.810Z,991.47
2022-12-06T02:57:31.791Z,991.47
2022-12-06T02:58:31.909Z,991.39
2022-12-06T02:59:31.825Z,991.39
2022-12-06T03:00:31.777Z,991.43
2022-12-06T03:01:31.838Z,991.45
2022-12-06T03:02:31.822Z,991.43
2022-12-06T03:03:31.771Z,991.39
2022-12-06T03:04:31.871Z,991.43
2022-12-06T03:05:31.763Z,991.39
2022-12-06T03:06:31.709Z,991.45
2022-12-06T03:07:31.788Z,991.43
2022-12-06T03:08:31.752Z,991.39
2022-12-06T03:09:31.758Z,991.35
2022-12-06T03:10:31.743Z,991.38
2022-12-06T03:11:31.712Z,991.33
2022-12-06T03:12:31.713Z,991.30
2022-12-06T03:13:31.716Z,991.29
2022-12-06T03:14:31.715Z,991.30
2022-12-06T03:15:31.786Z,991.25
2022-12-06T03:16:31.711Z,991.33
2022-12-06T03:17:31.685Z,991.34
2022-12-06T03:18:31.724Z,991.34
2022-12-06T03:19:31.642Z,991.28
2022-12-06T03:20:31.725Z,991.35
2022-12-06T03:21:31.674Z,991.27
2022-12-06T03:22:34.508Z,991.36
2022-12-06T03:23:31.650Z,991.26
2022-12-06T03:24:31.645Z,991.33
2022-12-06T03:25:31.661Z,991.23
2022-12-06T03:26:31.715Z,991.27
2022-12-06T03:27:31.603Z,991.33
2022-12-06T03:28:31.594Z,991.31
2022-12-06T03:29:31.629Z,991.30
2022-12-06T03:30:31.620Z,991.24
2022-12-06T03:31:31.669Z,991.28
2022-12-06T03:32:31.641Z,991.26
2022-12-06T03:33:31.558Z,991.27
2022-12-06T03:34:31.632Z,991.24
2022-12-06T03:35:31.578Z,991.23
2022-12-06T03:36:31.607Z,991.20
2022-12-06T03:37:31.749Z,991.24
2022-12-06T03:38:31.563Z,991.24
2022-12-06T03:39:31.555Z,991.24
2022-12-06T03:40:31.583Z,991.20
2022-12-06T03:41:31.531Z,991.22
2022-12-06T03:42:31.555Z,991.23
2022-12-06T03:43:31.558Z,991.19
2022-12-06T03:44:31.535Z,991.18
2022-12-06T03:45:31.577Z,991.22
2022-12-06T03:46:31.652Z,991.15
2022-12-06T03:47:31.510Z,991.11
2022-12-06T03:48:31.687Z,991.13
2022-12-06T03:49:31.514Z,991.06
2022-12-06T03:50:31.526Z,991.18
2022-12-06T03:51:31.523Z,991.12
2022-12-06T03:52:31.479Z,991.15
2022-12-06T03:53:31.619Z,991.13
2022-12-06T03:54:31.475Z,991.18
2022-12-06T03:55:32.499Z,991.15
2022-12-06T03:56:31.513Z,991.16
2022-12-06T03:57:31.472Z,991.16
2022-12-06T03:58:31.515Z,991.23
2022-12-06T03:59:31.606Z,991.20
2022-12-06T04:00:31.440Z,991.13
2022-12-06T04:01:31.490Z,991.13
2022-12-06T04:02:31.433Z,991.13
2022-12-06T04:03:31.485Z,991.19
2022-12-06T04:04:31.569Z,991.16
2022-12-06T04:05:31.423Z,991.17
2022-12-06T04:06:31.450Z,991.19
2022-12-06T04:07:31.508Z,991.15
2022-12-06T04:08:31.373Z,991.10
2022-12-06T04:09:31.416Z,991.15
2022-12-06T04:10:31.474Z,991.12
2022-12-06T04:11:31.368Z,991.16
2022-12-06T04:12:31.468Z,991.08
2022-12-06T04:13:31.410Z,991.10
2022-12-06T04:14:31.473Z,991.13
2022-12-06T04:15:31.517Z,991.17
2022-12-06T04:16:31.403Z,991.17
2022-12-06T04:17:31.392Z,991.11
2022-12-06T04:18:31.397Z,991.14
2022-12-06T04:19:31.349Z,991.11
2022-12-06T04:20:31.373Z,991.11
2022-12-06T04:21:31.410Z,991.15
2022-12-06T04:22:31.377Z,991.08
2022-12-06T04:23:31.366Z,991.07
2022-12-06T04:24:31.308Z,991.14
2022-12-06T04:25:31.307Z,991.12
2022-12-06T04:26:31.460Z,991.07
2022-12-06T04:27:31.376Z,991.07
2022-12-06T04:28:31.316Z,991.02
2022-12-06T04:29:31.996Z,991.04
2022-12-06T04:30:31.287Z,991.01
2022-12-06T04:31:31.329Z,990.96
2022-12-06T04:32:31.289Z,991.01
2022-12-06T04:33:31.313Z,990.98
2022-12-06T04:34:31.306Z,990.98
2022-12-06T04:35:31.285Z,990.96
2022-12-06T04:36:31.258Z,991.01
2022-12-06T04:37:31.364Z,991.01
2022-12-06T04:38:31.245Z,990.93
2022-12-06T04:39:31.255Z,990.94
2022-12-06T04:40:31.240Z,991.01
2022-12-06T04:41:31.252Z,990.97
2022-12-06T04:42:31.256Z,990.92
2022-12-06T04:43:31.262Z,990.98
2022-12-06T04:44:31.219Z,990.97
2022-12-06T04:45:31.229Z,990.92
2022-12-06T04:46:31.255Z,990.89
2022-12-06T04:47:31.196Z,990.94
2022-12-06T04:48:31.285Z,990.98
2022-12-06T04:49:31.191Z,990.89
2022-12-06T04:50:31.194Z,990.91
2022-12-06T04:51:31.194Z,991.01
2022-12-06T04:52:35.414Z,990.96
2022-12-06T04:53:32.179Z,990.92
2022-12-06T04:54:31.152Z,990.93
2022-12-06T04:55:31.195Z,990.96
2022-12-06T04:56:31.191Z,990.88
2022-12-06T04:57:31.157Z,990.88
2022-12-06T04:58:31.148Z,990.95
2022-12-06T04:59:31.169Z,990.87
2022-12-06T05:00:31.193Z,990.89
2022-12-06T05:01:31.121Z,990.90
2022-12-06T05:02:31.148Z,990.93
2022-12-06T05:03:31.219Z,990.91
2022-12-06T05:04:31.130Z,990.86
2022-12-06T05:05:31.125Z,990.75
2022-12-06T05:06:31.098Z,990.82
2022-12-06T05:07:31.169Z,990.85
2022-12-06T05:08:31.133Z,990.77
2022-12-06T05:09:31.079Z,990.84
2022-12-06T05:10:31.186Z,990.82
2022-12-06T05:11:31.075Z,990.80
2022-12-06T05:12:31.090Z,990.81
2022-12-06T05:13:31.027Z,990.87
2022-12-06T05:14:31.086Z,990.84
2022-12-06T05:15:31.115Z,990.89
2022-12-06T05:16:31.138Z,990.88
2022-12-06T05:17:31.051Z,990.84
2022-12-06T05:18:31.041Z,990.90
2022-12-06T05:19:31.015Z,990.88
2022-12-06T05:20:31.011Z,990.85
2022-12-06T05:21:31.116Z,990.86
2022-12-06T05:22:31.036Z,990.84
2022-12-06T05:23:31.031Z,990.83
2022-12-06T05:24:30.963Z,990.82
2022-12-06T05:25:30.975Z,990.92
2022-12-06T05:26:31.044Z,990.88
2022-12-06T05:27:35.811Z,990.89
2022-12-06T05:28:31.988Z,990.93
2022-12-06T05:29:30.948Z,990.94
2022-12-06T05:30:30.996Z,990.88
2022-12-06T05:31:31.011Z,990.92
2022-12-06T05:32:30.984Z,990.87
2022-12-06T05:33:30.970Z,990.88
2022-12-06T05:34:31.000Z,990.87
2022-12-06T05:35:30.950Z,990.97
2022-12-06T05:36:30.947Z,990.97
2022-12-06T05:37:31.147Z,990.99
2022-12-06T05:38:30.955Z,991.03
2022-12-06T05:39:30.940Z,990.95
2022-12-06T05:40:30.946Z,990.96
2022-12-06T05:41:30.956Z,990.97
2022-12-06T05:42:30.962Z,990.99
2022-12-06T05:43:30.928Z,991.00
2022-12-06T05:44:30.938Z,990.98
2022-12-06T05:45:30.987Z,990.96
2022-12-06T05:46:30.868Z,990.97
2022-12-06T05:47:30.921Z,990.95
2022-12-06T05:48:30.883Z,990.98
2022-12-06T05:49:30.877Z,990.98
2022-12-06T05:50:30.873Z,990.96
2022-12-06T05:51:30.899Z,990.97
2022-12-06T05:52:30.860Z,990.98
2022-12-06T05:53:30.822Z,990.93
2022-12-06T05:54:30.879Z,990.92
2022-12-06T05:55:30.870Z,990.93
2022-12-06T05:56:30.861Z,990.91
2022-12-06T05:57:30.848Z,990.89
2022-12-06T05:58:30.824Z,990.91
2022-12-06T05:59:30.862Z,990.88
2022-12-06T06:00:30.794Z,990.85
2022-12-06T06:01:30.789Z,990.86
2022-12-06T06:02:31.172Z,990.84
2022-12-06T06:03:30.869Z,990.87
2022-12-06T06:04:30.779Z,990.88
2022-12-06T06:05:30.926Z,990.81
2022-12-06T06:06:30.795Z,990.86
2022-12-06T06:07:30.805Z,990.85
2022-12-06T06:08:30.807Z,990.78
2022-12-06T06:09:30.826Z,990.85
2022-12-06T06:10:30.753Z,990.84
2022-12-06T06:11:30.731Z,990.83
2022-12-06T06:12:30.730Z,990.85
2022-12-06T06:13:30.748Z,990.79
2022-12-06T06:14:30.753Z,990.88
2022-12-06T06:15:30.731Z,990.85
2022-12-06T06:16:31.864Z,990.89
2022-12-06T06:17:30.730Z,990.80
2022-12-06T06:18:30.701Z,990.86
2022-12-06T06:19:30.719Z,990.80
2022-12-06T06:20:30.692Z,990.87
2022-12-06T06:21:30.707Z,990.82
2022-12-06T06:22:30.739Z,990.85
2022-12-06T06:23:30.693Z,990.92
2022-12-06T06:24:30.652Z,990.90
2022-12-06T06:25:30.697Z,990.91
2022-12-06T06:26:31.144Z,990.93
2022-12-06T06:27:30.817Z,990.91
2022-12-06T06:28:30.632Z,990.94
2022-12-06T06:29:30.659Z,990.91
2022-12-06T06:30:30.682Z,990.91
2022-12-06T06:31:30.718Z,990.90
2022-12-06T06:32:30.621Z,990.93
2022-12-06T06:33:30.670Z,990.87
2022-12-06T06:34:30.637Z,990.84
2022-12-06T06:35:30.647Z,990.88
2022-12-06T06:36:30.637Z,990.89
2022-12-06T06:37:30.651Z,990.88
2022-12-06T06:38:30.673Z,990.85
2022-12-06T06:39:30.591Z,990.88
2022-12-06T06:40:30.617Z,990.90
2022-12-06T06:41:30.579Z,990.92
2022-12-06T06:42:30.620Z,990.89
2022-12-06T06:43:30.578Z,990.94
2022-12-06T06:44:30.622Z,990.92
2022-12-06T06:45:30.555Z,990.97
2022-12-06T06:46:30.580Z,990.99
2022-12-06T06:47:30.548Z,991.01
2022-12-06T06:48:30.577Z,990.91
2022-12-06T06:49:30.588Z,990.97
2022-12-06T06:50:30.568Z,991.01
2022-12-06T06:51:30.516Z,990.96
2022-12-06T06:52:30.544Z,991.01
2022-12-06T06:53:30.564Z,990.97
2022-12-06T06:54:30.526Z,990.95
2022-12-06T06:55:30.609Z,990.93
2022-12-06T06:56:30.533Z,990.93
2022-12-06T06:57:30.473Z,990.95
2022-12-06T06:58:30.499Z,990.99
2022-12-06T06:59:30.482Z,990.95
2022-12-06T07:01:02.605Z,991.00
2022-12-06T07:01:30.540Z,990.94
2022-12-06T07:02:30.531Z,990.92
2022-12-06T07:03:30.454Z,990.95
2022-12-06T07:04:30.488Z,990.92
2022-12-06T07:05:30.448Z,991.01
2022-12-06T07:06:30.507Z,990.97
2022-12-06T07:07:30.472Z,991.02
2022-12-06T07:08:30.447Z,990.95
2022-12-06T07:09:30.407Z,990.94
2022-12-06T07:10:30.457Z,991.03
2022-12-06T07:11:30.481Z,990.99
2022-12-06T07:12:30.417Z,990.94
2022-12-06T07:13:30.438Z,990.94
2022-12-06T07:14:30.418Z,990.97
2022-12-06T07:15:30.436Z,990.97
2022-12-06T07:16:30.510Z,990.97
2022-12-06T07:17:31.434Z,991.00
2022-12-06T07:18:30.414Z,991.02
2022-12-06T07:19:30.417Z,991.02
2022-12-06T07:20:30.392Z,991.01
2022-12-06T07:21:30.422Z,990.99
2022-12-06T07:22:30.500Z,991.00
2022-12-06T07:23:30.396Z,991.03
2022-12-06T07:24:30.369Z,991.00
2022-12-06T07:25:30.388Z,990.98
2022-12-06T07:26:30.347Z,991.06
2022-12-06T07:27:30.347Z,991.03
2022-12-06T07:28:30.372Z,991.05
2022-12-06T07:29:30.339Z,991.07
2022-12-06T07:30:30.351Z,991.02
2022-12-06T07:31:30.372Z,991.06
2022-12-06T07:32:30.315Z,991.06
2022-12-06T07:33:30.327Z,991.07
2022-12-06T07:34:30.350Z,991.00
2022-12-06T07:35:55.456Z,991.02
2022-12-06T07:36:31.403Z,990.98
2022-12-06T07:37:30.278Z,991.00
2022-12-06T07:38:30.296Z,991.04
2022-12-06T07:39:30.480Z,991.02
2022-12-06T07:40:56.018Z,991.04
2022-12-06T07:41:31.293Z,991.05
2022-12-06T07:42:30.237Z,991.14
2022-12-06T07:43:30.244Z,991.05
2022-12-06T07:44:30.353Z,991.02
2022-12-06T07:45:30.256Z,991.04
2022-12-06T07:46:30.335Z,991.06
2022-12-06T07:47:30.236Z,991.04
2022-12-06T07:48:30.214Z,991.06
2022-12-06T07:49:30.236Z,991.03
2022-12-06T07:50:30.322Z,991.08
2022-12-06T07:51:30.201Z,991.06
2022-12-06T07:52:30.193Z,991.06
2022-12-06T07:53:30.178Z,991.05
2022-12-06T07:54:30.224Z,991.01
2022-12-06T07:55:30.240Z,991.09
2022-12-06T07:56:30.206Z,991.03
2022-12-06T07:57:30.210Z,991.09
2022-12-06T07:58:30.199Z,991.08
2022-12-06T07:59:30.213Z,991.15
2022-12-06T08:00:30.187Z,991.06
2022-12-06T08:01:30.336Z,991.10
2022-12-06T08:02:30.170Z,991.12
2022-12-06T08:03:30.158Z,991.05
2022-12-06T08:04:30.219Z,991.07
2022-12-06T08:05:30.174Z,991.12
2022-12-06T08:06:30.215Z,991.14
2022-12-06T08:07:30.154Z,991.09
2022-12-06T08:08:30.208Z,991.09
2022-12-06T08:09:30.100Z,991.05
2022-12-06T08:10:30.127Z,991.08
2022-12-06T08:11:30.097Z,991.07
2022-12-06T08:12:31.061Z,991.15
2022-12-06T08:13:30.118Z,991.11
2022-12-06T08:14:30.161Z,991.10
2022-12-06T08:15:30.066Z,991.12
2022-12-06T08:16:30.167Z,991.09
2022-12-06T08:17:30.115Z,991.08
2022-12-06T08:18:30.081Z,991.11
2022-12-06T08:19:30.065Z,991.15
2022-12-06T08:20:30.068Z,991.12
2022-12-06T08:21:30.036Z,991.16
2022-12-06T08:22:30.065Z,991.19
2022-12-06T08:23:34.181Z,991.16
2022-12-06T08:24:30.053Z,991.17
2022-12-06T08:25:30.051Z,991.14
2022-12-06T08:26:30.018Z,991.13
2022-12-06T08:27:30.056Z,991.17
2022-12-06T08:28:30.093Z,991.16
2022-12-06T08:29:30.033Z,991.22
2022-12-06T08:30:30.022Z,991.26
2022-12-06T08:31:30.110Z,991.23
2022-12-06T08:32:29.994Z,991.19
2022-12-06T08:33:29.999Z,991.25
2022-12-06T08:34:30.116Z,991.19
2022-12-06T08:35:30.012Z,991.22
2022-12-06T08:36:29.963Z,991.22
2022-12-06T08:37:29.969Z,991.16
2022-12-06T08:38:29.950Z,991.25
2022-12-06T08:39:30.004Z,991.24
2022-12-06T08:40:29.952Z,991.22
2022-12-06T08:41:29.974Z,991.22
2022-12-06T08:42:29.965Z,991.25
2022-12-06T08:43:29.956Z,991.31
2022-12-06T08:44:29.923Z,991.27
2022-12-06T08:45:30.061Z,991.25
2022-12-06T08:46:30.082Z,991.26
2022-12-06T08:47:29.903Z,991.26
2022-12-06T08:48:29.922Z,991.23
2022-12-06T08:49:29.911Z,991.28
2022-12-06T08:50:29.922Z,991.33
2022-12-06T08:51:29.887Z,991.29
2022-12-06T08:52:29.870Z,991.28
2022-12-06T08:53:29.872Z,991.28
2022-12-06T08:54:29.899Z,991.34
2022-12-06T08:55:29.889Z,991.35
2022-12-06T08:56:30.008Z,991.42
2022-12-06T08:57:29.859Z,991.32
2022-12-06T08:58:29.886Z,991.36
2022-12-06T08:59:29.841Z,991.33
2022-12-06T09:00:29.865Z,991.37
2022-12-06T09:01:35.706Z,991.34
2022-12-06T09:02:31.844Z,991.40
2022-12-06T09:03:29.810Z,991.42
2022-12-06T09:04:29.927Z,991.36
2022-12-06T09:05:29.804Z,991.42
2022-12-06T09:06:29.806Z,991.37
2022-12-06T09:07:29.937Z,991.42
2022-12-06T09:08:29.845Z,991.40
2022-12-06T09:09:29.823Z,991.45
2022-12-06T09:10:29.786Z,991.43
2022-12-06T09:11:29.795Z,991.46
2022-12-06T09:12:29.778Z,991.48
2022-12-06T09:13:29.806Z,991.43
2022-12-06T09:14:29.774Z,991.44
2022-12-06T09:15:29.778Z,991.50
2022-12-06T09:16:29.779Z,991.48
2022-12-06T09:17:29.742Z,991.54
2022-12-06T09:18:29.846Z,991.58
2022-12-06T09:19:29.771Z,991.61
2022-12-06T09:20:29.731Z,991.55
2022-12-06T09:21:29.725Z,991.52
2022-12-06T09:22:29.734Z,991.59
2022-12-06T09:23:29.731Z,991.58
2022-12-06T09:24:29.734Z,991.59
2022-12-06T09:25:29.713Z,991.52
2022-12-06T09:26:29.716Z,991.56
2022-12-06T09:27:29.693Z,991.55
2022-12-06T09:28:29.712Z,991.53
2022-12-06T09:29:29.812Z,991.56
2022-12-06T09:30:29.698Z,991.55
2022-12-06T09:31:29.725Z,991.56
2022-12-06T09:32:29.661Z,991.53
2022-12-06T09:33:29.689Z,991.53
2022-12-06T09:34:29.796Z,991.49
2022-12-06T09:35:29.644Z,991.52
2022-12-06T09:36:29.651Z,991.47
2022-12-06T09:37:29.663Z,991.49
2022-12-06T09:38:29.630Z,991.51
2022-12-06T09:39:29.651Z,991.51
2022-12-06T09:40:29.642Z,991.48
2022-12-06T09:41:29.637Z,991.49
2022-12-06T09:42:29.620Z,991.56
2022-12-06T09:43:29.670Z,991.50
2022-12-06T09:44:29.616Z,991.52
2022-12-06T09:45:29.738Z,991.49
2022-12-06T09:46:29.700Z,991.51
2022-12-06T09:47:29.559Z,991.45
2022-12-06T09:48:29.596Z,991.47
2022-12-06T09:49:29.596Z,991.46
2022-12-06T09:50:30.578Z,991.48
2022-12-06T09:51:29.604Z,991.48
2022-12-06T09:52:29.558Z,991.51
2022-12-06T09:53:29.519Z,991.43
2022-12-06T09:54:29.556Z,991.49
2022-12-06T09:55:29.550Z,991.46
2022-12-06T09:56:29.556Z,991.54
2022-12-06T09:57:29.538Z,991.47
2022-12-06T09:58:29.573Z,991.45
2022-12-06T09:59:29.510Z,991.43
2022-12-06T10:00:29.509Z,991.47
2022-12-06T10:01:29.691Z,991.48
2022-12-06T10:02:29.550Z,991.43
2022-12-06T10:03:29.594Z,991.40
2022-12-06T10:04:29.487Z,991.45
2022-12-06T10:05:29.490Z,991.43
2022-12-06T10:06:29.469Z,991.45
2022-12-06T10:07:29.514Z,991.43
2022-12-06T10:08:29.613Z,991.39
2022-12-06T10:09:29.491Z,991.37
2022-12-06T10:10:29.447Z,991.40
2022-12-06T10:11:29.518Z,991.41
2022-12-06T10:12:29.444Z,991.23
2022-12-06T10:13:29.461Z,991.31
2022-12-06T10:14:29.513Z,991.34
2022-12-06T10:15:29.439Z,991.40
2022-12-06T10:16:29.500Z,991.28
2022-12-06T10:17:29.418Z,991.33
2022-12-06T10:18:30.109Z,991.44
2022-12-06T10:19:29.499Z,991.30
2022-12-06T10:20:29.395Z,991.27
2022-12-06T10:21:29.467Z,991.34
2022-12-06T10:22:29.391Z,991.27
2022-12-06T10:23:29.505Z,991.31
2022-12-06T10:24:29.364Z,991.27
2022-12-06T10:25:29.437Z,991.20
2022-12-06T10:26:29.385Z,991.22
2022-12-06T10:27:29.384Z,991.20
2022-12-06T10:28:29.394Z,991.20
2022-12-06T10:29:30.034Z,991.21
2022-12-06T10:30:29.317Z,991.14
2022-12-06T10:31:29.437Z,991.19
2022-12-06T10:32:29.348Z,991.16
2022-12-06T10:33:29.319Z,991.22
2022-12-06T10:34:29.452Z,991.21
2022-12-06T10:35:29.350Z,991.15
2022-12-06T10:36:29.323Z,991.25
2022-12-06T10:37:29.304Z,991.21
2022-12-06T10:38:29.284Z,991.17
2022-12-06T10:39:29.303Z,991.22
2022-12-06T10:40:29.325Z,991.23
2022-12-06T10:41:29.334Z,991.23
2022-12-06T10:42:29.279Z,991.27
2022-12-06T10:43:29.254Z,991.22
2022-12-06T10:44:29.270Z,991.23
2022-12-06T10:45:29.300Z,991.27
2022-12-06T10:46:29.331Z,991.27
2022-12-06T10:47:29.237Z,991.27
2022-12-06T10:48:29.229Z,991.24
2022-12-06T10:49:29.268Z,991.21
2022-12-06T10:50:29.239Z,991.20
2022-12-06T10:51:29.278Z,991.20
2022-12-06T10:52:29.215Z,991.22
2022-12-06T10:53:29.242Z,991.20
2022-12-06T10:54:29.197Z,991.26
2022-12-06T10:55:29.193Z,991.18
2022-12-06T10:56:29.223Z,991.23
2022-12-06T10:57:29.195Z,991.19
2022-12-06T10:58:29.190Z,991.18
2022-12-06T10:59:29.168Z,991.19
2022-12-06T11:00:29.279Z,991.21
2022-12-06T11:01:29.217Z,991.13
2022-12-06T11:02:29.258Z,991.20
2022-12-06T11:03:29.169Z,991.22
2022-12-06T11:04:29.128Z,991.17
2022-12-06T11:05:29.133Z,991.23
2022-12-06T11:06:29.146Z,991.21
2022-12-06T11:07:29.258Z,991.17
2022-12-06T11:08:29.172Z,991.20
2022-12-06T11:09:29.092Z,991.24
2022-12-06T11:10:29.120Z,991.15
2022-12-06T11:11:29.142Z,991.18
2022-12-06T11:12:31.455Z,991.10
2022-12-06T11:13:30.113Z,991.15
2022-12-06T11:14:29.114Z,991.14
2022-12-06T11:15:29.077Z,991.10
2022-12-06T11:16:29.139Z,991.12
2022-12-06T11:17:29.208Z,991.11
2022-12-06T11:18:29.079Z,991.07
2022-12-06T11:19:29.082Z,991.08
2022-12-06T11:20:29.034Z,991.09
2022-12-06T11:21:29.013Z,991.09
2022-12-06T11:22:29.028Z,991.12
2022-12-06T11:23:29.061Z,991.14
2022-12-06T11:24:29.004Z,991.11
2022-12-06T11:25:29.044Z,991.05
2022-12-06T11:26:29.023Z,991.09
2022-12-06T11:27:29.001Z,991.07
2022-12-06T11:28:29.034Z,991.04
2022-12-06T11:29:29.007Z,991.09
2022-12-06T11:30:28.979Z,991.06
2022-12-06T11:31:29.089Z,991.06
2022-12-06T11:32:29.017Z,991.09
2022-12-06T11:33:28.966Z,991.08
2022-12-06T11:34:29.083Z,991.02
2022-12-06T11:35:28.975Z,991.00
2022-12-06T11:36:28.967Z,990.98
2022-12-06T11:37:28.952Z,990.96
2022-12-06T11:38:29.152Z,991.02
2022-12-06T11:39:28.993Z,990.93
2022-12-06T11:40:28.950Z,990.91
2022-12-06T11:41:28.919Z,990.94
2022-12-06T11:42:28.925Z,990.91
2022-12-06T11:43:28.918Z,990.97
2022-12-06T11:44:28.906Z,990.87
2022-12-06T11:45:28.956Z,990.96
2022-12-06T11:46:28.953Z,990.95
2022-12-06T11:47:28.937Z,990.94
2022-12-06T11:48:28.876Z,990.92
2022-12-06T11:49:28.894Z,990.96
2022-12-06T11:50:28.937Z,990.93
2022-12-06T11:51:28.834Z,990.92
2022-12-06T11:52:28.870Z,990.89
2022-12-06T11:53:28.858Z,990.93
2022-12-06T11:54:28.821Z,990.91
2022-12-06T11:55:28.831Z,990.92
2022-12-06T11:56:28.852Z,990.89
2022-12-06T11:57:28.837Z,990.88
2022-12-06T11:58:28.841Z,990.89
2022-12-06T11:59:28.784Z,990.90
2022-12-06T12:00:31.056Z,990.95
2022-12-06T12:01:28.927Z,990.96
2022-12-06T12:02:28.900Z,990.89
2022-12-06T12:03:28.877Z,990.86
2022-12-06T12:04:28.793Z,990.86
2022-12-06T12:05:28.748Z,990.84
2022-12-06T12:06:28.781Z,990.80
2022-12-06T12:07:28.836Z,990.86
2022-12-06T12:08:32.607Z,990.83
2022-12-06T12:09:29.793Z,990.78
2022-12-06T12:10:28.758Z,990.78
2022-12-06T12:11:28.733Z,990.78
2022-12-06T12:12:28.781Z,990.79
2022-12-06T12:13:28.744Z,990.79
2022-12-06T12:14:28.696Z,990.76
2022-12-06T12:15:28.721Z,990.77
2022-12-06T12:16:28.773Z,990.75
2022-12-06T12:17:28.696Z,990.77
2022-12-06T12:18:28.738Z,990.82
2022-12-06T12:19:28.684Z,990.76
2022-12-06T12:20:28.701Z,990.77
2022-12-06T12:21:28.716Z,990.75
2022-12-06T12:22:28.668Z,990.80
2022-12-06T12:23:28.670Z,990.71
2022-12-06T12:24:28.683Z,990.76
2022-12-06T12:25:28.634Z,990.74
2022-12-06T12:26:28.638Z,990.74
2022-12-06T12:27:28.854Z,990.77
2022-12-06T12:28:28.655Z,990.73